Calabar, Nigeria
Current Conditions -  °F | °C
As of 4:00 PM on Monday 22 Dec 2014 (Local Time) from FGSL Reporting Station
Few Clouds Few Clouds  
Wind Chill: 86°   Ceiling: Unl
Heat Index: 92°   Visibility: 6mi
Dew Point: 72°   Wind: 8mph
Humidity: 62%   Direction: 270°W
Pressure: 29.83"   Gusts: NA
Location:  4.96°N, 8.31°E
Report Text: FGSL 221500Z 27007KT 230V290 9999 FEW010 30/22 Q1010 NOSIG
Loading
Personal Weather Stations






























Interactive Weather Map New forecast layout! Learn more

10-Day Weather Forecast

Advertisements
Track Severe Weather on mobile